Time;durP1;ratioP1;P1;durP2;ratioP2;P2;SDS_P1;SDS_P2;PMS_P1;PMS_P2;Temp;Humidity;BMP_temperature;BMP_pressure;BME280_temperature;BME280_humidity;BME280_pressure;Samples;Min_cycle;Max_cycle;Signal;HPM_P1;HPM_P2
2023/04/08 00:01:32;;;;;;;14.97;12.20;;;8.40;91.90;;;;;;5025297;28;20448;-67
2023/04/08 00:03:58;;;;;;;14.03;12.40;;;8.40;91.90;;;;;;5027018;28;20571;-67
2023/04/08 00:06:27;;;;;;;14.67;13.07;;;8.40;91.80;;;;;;5027407;28;20437;-66
2023/04/08 00:08:53;;;;;;;13.37;11.47;;;8.40;92.00;;;;;;5027583;28;20471;-66
2023/04/08 00:11:20;;;;;;;14.60;12.23;;;8.30;92.00;;;;;;5020944;28;20437;-67
2023/04/08 00:13:47;;;;;;;16.23;11.97;;;8.40;91.90;;;;;;5028100;28;20477;-67
2023/04/08 00:16:14;;;;;;;14.10;12.37;;;8.40;91.80;;;;;;5019220;28;20489;-66
2023/04/08 00:18:41;;;;;;;12.30;11.00;;;8.40;91.90;;;;;;5027286;28;20467;-67
2023/04/08 00:21:08;;;;;;;12.93;10.97;;;8.40;91.80;;;;;;5027803;28;20471;-67
2023/04/08 00:23:36;;;;;;;13.33;11.83;;;8.30;91.80;;;;;;5027083;28;20477;-67
2023/04/08 00:26:03;;;;;;;13.40;11.70;;;8.30;91.80;;;;;;5027966;28;20449;-66
2023/04/08 00:28:30;;;;;;;14.00;11.90;;;8.20;91.90;;;;;;5027573;28;20433;-66
2023/04/08 00:30:57;;;;;;;15.77;13.53;;;8.10;92.00;;;;;;5027737;28;20979;-67
2023/04/08 00:33:24;;;;;;;14.00;12.40;;;8.10;92.20;;;;;;5027072;28;20551;-67
2023/04/08 00:35:51;;;;;;;15.20;12.47;;;8.10;92.10;;;;;;5025214;28;20468;-66
2023/04/08 00:38:18;;;;;;;14.27;12.63;;;8.10;92.30;;;;;;5026809;28;20452;-67
2023/04/08 00:40:46;;;;;;;15.67;13.00;;;8.10;92.20;;;;;;5027148;28;20474;-67
2023/04/08 00:43:15;;;;;;;13.80;12.23;;;8.10;92.20;;;;;;5016452;28;20465;-66
2023/04/08 00:45:42;;;;;;;15.77;12.80;;;8.10;92.30;;;;;;5009053;28;20508;-65
2023/04/08 00:48:09;;;;;;;15.07;12.47;;;8.00;92.40;;;;;;5007779;28;20491;-67
2023/04/08 00:50:36;;;;;;;15.30;12.73;;;8.10;92.50;;;;;;5007713;28;20516;-66
2023/04/08 00:53:02;;;;;;;17.03;12.83;;;8.20;92.20;;;;;;5008718;28;20465;-66
2023/04/08 00:55:29;;;;;;;15.50;13.10;;;8.20;92.10;;;;;;5008179;28;20445;-66
2023/04/08 00:57:58;;;;;;;15.50;12.90;;;8.20;92.20;;;;;;5020790;28;20560;-64
2023/04/08 01:00:25;;;;;;;14.90;13.07;;;8.20;92.30;;;;;;5028698;28;20989;-65
2023/04/08 01:03:01;;;;;;;15.37;13.80;;;8.20;92.30;;;;;;5028803;28;20961;-65
2023/04/08 01:05:37;;;;;;;14.70;13.20;;;8.20;92.30;;;;;;5028979;28;21004;-66
2023/04/08 01:08:06;;;;;;;14.17;12.67;;;8.20;92.20;;;;;;5029834;28;20456;-64
2023/04/08 01:10:35;;;;;;;15.60;13.53;;;8.10;92.10;;;;;;5029327;28;20499;-66
2023/04/08 01:13:08;;;;;;;17.90;14.23;;;8.00;92.20;;;;;;5029564;28;20463;-65
2023/04/08 01:15:40;;;;;;;15.10;13.50;;;8.00;92.40;;;;;;5029437;28;20453;-66
2023/04/08 01:18:09;;;;;;;15.10;13.17;;;8.00;92.30;;;;;;5029510;28;20605;-65
2023/04/08 01:20:37;;;;;;;15.33;13.77;;;8.00;92.30;;;;;;5029430;28;20489;-65
2023/04/08 01:23:10;;;;;;;14.93;13.00;;;8.00;92.30;;;;;;5029271;28;20630;-65
2023/04/08 01:25:39;;;;;;;14.20;12.80;;;8.00;92.20;;;;;;5029901;28;20541;-66
2023/04/08 01:28:09;;;;;;;15.43;13.80;;;8.00;92.30;;;;;;5029420;28;20450;-65
2023/04/08 01:30:38;;;;;;;15.07;13.47;;;7.90;92.30;;;;;;5029355;28;20480;-65
2023/04/08 01:33:06;;;;;;;15.90;13.63;;;7.90;92.20;;;;;;5029538;28;20456;-66
2023/04/08 01:35:33;;;;;;;16.40;14.00;;;7.90;92.30;;;;;;5029587;28;20448;-66
2023/04/08 01:38:01;;;;;;;14.63;13.23;;;7.90;92.20;;;;;;5031126;28;20452;-65
2023/04/08 01:40:28;;;;;;;16.67;14.63;;;7.90;92.20;;;;;;5033120;28;20475;-63
2023/04/08 01:42:57;;;;;;;16.10;14.30;;;7.80;92.20;;;;;;5032757;28;20792;-65
2023/04/08 01:45:26;;;;;;;16.37;14.13;;;7.80;92.20;;;;;;5033361;28;20859;-65
2023/04/08 01:47:53;;;;;;;14.70;13.10;;;7.90;92.20;;;;;;5033546;28;20822;-65
2023/04/08 01:50:21;;;;;;;16.10;14.40;;;7.80;92.10;;;;;;5033173;28;20476;-66
2023/04/08 01:52:51;;;;;;;13.90;12.23;;;7.80;92.10;;;;;;5032908;28;20973;-65
2023/04/08 01:55:19;;;;;;;15.33;13.10;;;7.90;92.00;;;;;;5033079;28;20484;-65
2023/04/08 01:57:50;;;;;;;15.73;12.70;;;7.80;91.90;;;;;;5033247;28;20470;-65
2023/04/08 02:00:24;;;;;;;14.63;12.43;;;7.90;92.10;;;;;;5033136;28;21053;-65
2023/04/08 02:02:54;;;;;;;15.00;13.40;;;7.90;92.00;;;;;;5032444;28;20460;-66
2023/04/08 02:05:21;;;;;;;13.50;12.10;;;7.80;92.20;;;;;;5032931;28;20485;-65
2023/04/08 02:07:48;;;;;;;13.63;12.23;;;7.90;92.00;;;;;;5032522;28;20482;-64
2023/04/08 02:10:15;;;;;;;14.30;12.77;;;8.00;91.90;;;;;;5032508;28;20574;-65
2023/04/08 02:12:42;;;;;;;17.40;14.23;;;8.00;91.70;;;;;;5032679;28;20455;-65
2023/04/08 02:15:11;;;;;;;17.17;14.10;;;8.00;91.80;;;;;;5032708;28;20452;-65
2023/04/08 02:17:44;;;;;;;15.63;13.40;;;7.90;91.90;;;;;;5032725;28;20495;-66
2023/04/08 02:20:17;;;;;;;17.40;14.47;;;7.90;91.90;;;;;;5033366;28;20534;-65
2023/04/08 02:22:48;;;;;;;17.73;15.20;;;8.00;92.10;;;;;;5032166;28;20448;-65
2023/04/08 02:25:17;;;;;;;15.83;13.20;;;8.00;92.10;;;;;;5032470;28;20490;-67
2023/04/08 02:27:45;;;;;;;16.80;13.63;;;8.00;92.10;;;;;;5032413;28;20441;-66
2023/04/08 02:30:13;;;;;;;16.80;14.63;;;7.90;92.10;;;;;;5032331;28;20523;-66
2023/04/08 02:32:40;;;;;;;18.97;14.90;;;8.00;92.10;;;;;;5032176;28;20444;-66
2023/04/08 02:35:08;;;;;;;17.70;14.67;;;8.00;92.10;;;;;;5032698;28;20461;-65
2023/04/08 02:37:36;;;;;;;17.77;15.80;;;8.00;92.10;;;;;;5032655;28;20455;-65
2023/04/08 02:40:04;;;;;;;18.53;14.60;;;8.00;92.00;;;;;;5032227;28;21011;-64
2023/04/08 02:42:31;;;;;;;16.63;14.57;;;8.00;91.90;;;;;;5032654;28;20449;-65
2023/04/08 02:44:57;;;;;;;18.00;12.90;;;7.90;91.90;;;;;;5032707;28;20476;-64
2023/04/08 02:47:24;;;;;;;19.40;14.43;;;7.80;91.90;;;;;;5032598;28;20441;-66
2023/04/08 02:49:54;;;;;;;19.53;15.67;;;7.80;91.90;;;;;;5032036;28;20570;-66
2023/04/08 02:52:20;;;;;;;16.30;14.60;;;7.70;92.00;;;;;;5032245;28;20449;-65
2023/04/08 02:54:48;;;;;;;19.10;14.30;;;7.70;92.10;;;;;;5032098;28;20447;-65
2023/04/08 02:57:16;;;;;;;21.97;15.07;;;7.70;92.70;;;;;;5032151;28;20448;-65
2023/04/08 02:59:42;;;;;;;18.77;14.90;;;7.60;92.40;;;;;;5031560;28;20576;-65
2023/04/08 03:02:09;;;;;;;18.23;15.50;;;7.60;92.70;;;;;;5032114;28;20979;-65
2023/04/08 03:04:36;;;;;;;19.57;15.97;;;7.60;92.70;;;;;;5032040;28;20879;-65
2023/04/08 03:07:03;;;;;;;20.60;16.80;;;7.50;92.90;;;;;;5031686;28;20462;-66
2023/04/08 03:09:30;;;;;;;24.43;16.63;;;7.50;92.90;;;;;;5032235;28;20475;-65
2023/04/08 03:11:58;;;;;;;27.83;16.53;;;7.60;93.10;;;;;;5031764;28;21011;-66
2023/04/08 03:14:24;;;;;;;24.23;17.03;;;7.50;93.10;;;;;;5031433;28;20441;-65
2023/04/08 03:16:51;;;;;;;22.73;16.90;;;7.60;93.10;;;;;;5031812;28;20463;-66
2023/04/08 03:19:18;;;;;;;22.77;17.13;;;7.60;93.10;;;;;;5031726;28;20471;-65
2023/04/08 03:21:45;;;;;;;24.00;16.80;;;7.50;93.00;;;;;;5031806;28;20451;-65
2023/04/08 03:24:11;;;;;;;22.33;16.60;;;7.50;93.00;;;;;;5031510;28;20894;-66
2023/04/08 03:26:38;;;;;;;27.20;17.80;;;7.60;92.90;;;;;;5031778;28;20446;-66
2023/04/08 03:29:06;;;;;;;27.00;17.87;;;7.50;92.90;;;;;;5031067;28;20462;-66
2023/04/08 03:31:33;;;;;;;23.43;17.13;;;7.60;93.00;;;;;;5031792;28;20456;-66
2023/04/08 03:34:00;;;;;;;29.10;18.77;;;7.50;93.10;;;;;;5031019;28;20473;-66
2023/04/08 03:36:27;;;;;;;25.90;18.20;;;7.50;93.10;;;;;;5031437;28;20797;-66
2023/04/08 03:38:53;;;;;;;26.63;18.63;;;7.50;93.20;;;;;;5031217;28;20452;-66
2023/04/08 03:41:20;;;;;;;24.30;17.63;;;7.60;93.10;;;;;;5030956;28;20449;-66
2023/04/08 03:43:47;;;;;;;28.20;17.83;;;7.70;93.20;;;;;;5030909;28;20455;-66
2023/04/08 03:46:15;;;;;;;26.37;17.60;;;7.70;92.90;;;;;;5031045;28;20478;-66
2023/04/08 03:48:42;;;;;;;27.23;17.77;;;7.70;92.90;;;;;;5031171;28;20450;-65
2023/04/08 03:51:09;;;;;;;23.70;16.57;;;7.60;93.00;;;;;;5030837;28;20477;-65
2023/04/08 03:53:35;;;;;;;25.87;18.50;;;7.70;93.00;;;;;;5030398;28;20476;-67
2023/04/08 03:56:03;;;;;;;23.57;17.90;;;7.60;93.00;;;;;;5030799;28;20975;-63
2023/04/08 03:58:30;;;;;;;27.47;17.80;;;7.60;93.00;;;;;;5030932;28;20453;-65
2023/04/08 04:00:57;;;;;;;25.67;16.87;;;7.50;93.10;;;;;;5030514;28;20470;-66
2023/04/08 04:03:25;;;;;;;28.90;20.10;;;7.50;93.20;;;;;;5030429;28;20806;-65
2023/04/08 04:05:53;;;;;;;25.43;18.93;;;7.50;93.20;;;;;;5030794;28;20493;-66
2023/04/08 04:08:19;;;;;;;24.43;18.10;;;7.50;93.10;;;;;;5030659;28;20453;-66
2023/04/08 04:10:46;;;;;;;25.40;18.27;;;7.40;93.10;;;;;;5030621;28;20472;-66
2023/04/08 04:13:13;;;;;;;25.73;16.87;;;7.30;93.20;;;;;;5030560;28;20446;-66
2023/04/08 04:15:40;;;;;;;27.30;19.13;;;7.30;93.30;;;;;;5030218;28;20441;-65
2023/04/08 04:18:07;;;;;;;22.63;17.80;;;7.20;93.40;;;;;;5029066;28;20452;-66
2023/04/08 04:20:37;;;;;;;24.93;17.20;;;7.10;93.40;;;;;;5029568;28;20467;-66
2023/04/08 04:23:03;;;;;;;29.80;18.83;;;7.00;93.70;;;;;;5029896;28;21003;-66
2023/04/08 04:25:30;;;;;;;28.30;17.87;;;6.90;93.90;;;;;;5030532;28;20492;-65
2023/04/08 04:27:57;;;;;;;30.73;20.87;;;6.70;94.00;;;;;;5030629;28;20454;-66
2023/04/08 04:30:24;;;;;;;29.80;20.00;;;6.70;94.40;;;;;;5029926;28;21103;-66
2023/04/08 04:32:51;;;;;;;31.60;20.00;;;6.60;94.50;;;;;;5030006;28;20952;-66
2023/04/08 04:35:18;;;;;;;27.57;18.73;;;6.60;94.70;;;;;;5030508;28;20462;-65
2023/04/08 04:37:46;;;;;;;25.83;19.70;;;6.50;94.70;;;;;;5029739;28;20449;-66
2023/04/08 04:40:13;;;;;;;29.80;19.43;;;6.40;94.70;;;;;;5029893;28;20998;-66
2023/04/08 04:42:40;;;;;;;33.67;20.30;;;6.30;94.80;;;;;;5029770;28;20821;-66
2023/04/08 04:45:08;;;;;;;32.17;21.53;;;6.20;95.10;;;;;;5030179;28;20528;-66
2023/04/08 04:47:35;;;;;;;29.77;20.23;;;6.20;95.20;;;;;;5030000;28;20862;-67
2023/04/08 04:50:02;;;;;;;30.60;22.03;;;6.20;95.40;;;;;;5031344;28;20478;-66
2023/04/08 04:52:29;;;;;;;33.70;22.87;;;6.20;95.30;;;;;;5029741;28;20452;-64
2023/04/08 04:54:58;;;;;;;29.33;20.83;;;6.10;95.30;;;;;;5030057;28;20454;-67
2023/04/08 04:57:25;;;;;;;29.80;21.10;;;6.10;95.50;;;;;;5030208;28;20453;-66
2023/04/08 04:59:52;;;;;;;37.37;23.20;;;6.00;95.70;;;;;;5029638;28;20465;-66
2023/04/08 05:02:18;;;;;;;35.53;22.90;;;6.00;95.90;;;;;;5030060;28;20442;-66
2023/04/08 05:04:46;;;;;;;36.80;23.23;;;6.00;95.80;;;;;;5029073;28;20458;-66
2023/04/08 05:07:12;;;;;;;32.50;23.07;;;5.90;95.70;;;;;;5030294;28;20463;-66
2023/04/08 05:09:39;;;;;;;31.83;22.40;;;6.00;96.10;;;;;;5029970;28;20469;-66
2023/04/08 05:12:07;;;;;;;30.53;20.20;;;6.10;96.00;;;;;;5028755;28;21019;-65
2023/04/08 05:14:34;;;;;;;29.57;19.90;;;6.10;95.80;;;;;;5029961;28;20453;-64
2023/04/08 05:17:01;;;;;;;33.90;22.13;;;6.10;95.70;;;;;;5029728;28;20528;-66
2023/04/08 05:19:28;;;;;;;31.37;21.10;;;6.00;95.60;;;;;;5029718;28;21190;-66
2023/04/08 05:21:54;;;;;;;32.77;23.17;;;5.90;96.00;;;;;;5029777;28;20448;-66
2023/04/08 05:24:21;;;;;;;32.63;22.47;;;6.00;96.20;;;;;;5029704;28;20444;-66
2023/04/08 05:26:51;;;;;;;30.63;21.40;;;6.00;96.20;;;;;;5029622;28;20502;-66
2023/04/08 05:29:20;;;;;;;34.90;22.67;;;6.10;96.10;;;;;;5029770;28;20830;-66
2023/04/08 05:31:47;;;;;;;29.97;21.53;;;6.10;96.30;;;;;;5029665;28;20462;-66
2023/04/08 05:34:14;;;;;;;29.10;20.87;;;6.20;96.40;;;;;;5029003;28;20458;-65
2023/04/08 05:36:41;;;;;;;30.97;20.83;;;6.40;96.20;;;;;;5029916;28;20538;-66
2023/04/08 05:39:08;;;;;;;31.60;20.63;;;6.40;95.70;;;;;;5029286;28;20482;-66
2023/04/08 05:41:34;;;;;;;28.83;19.80;;;6.50;95.80;;;;;;5029437;28;20455;-65
2023/04/08 05:44:01;;;;;;;25.13;19.30;;;6.60;96.10;;;;;;5028461;28;20457;-67
2023/04/08 05:46:29;;;;;;;25.37;20.03;;;6.80;95.50;;;;;;5029541;28;20471;-66
2023/04/08 05:48:56;;;;;;;27.10;20.70;;;6.90;95.10;;;;;;5029344;28;20452;-66
2023/04/08 05:51:23;;;;;;;26.53;19.50;;;7.00;94.50;;;;;;5029454;28;20455;-67
2023/04/08 05:53:50;;;;;;;25.80;17.83;;;7.10;94.40;;;;;;5029306;28;20449;-67
2023/04/08 05:56:16;;;;;;;24.80;17.57;;;7.20;94.50;;;;;;5029341;28;20491;-66
2023/04/08 05:58:43;;;;;;;24.70;18.30;;;7.30;94.60;;;;;;5029329;28;20471;-66
2023/04/08 06:01:10;;;;;;;21.93;18.17;;;7.50;94.40;;;;;;5028780;28;20986;-66
2023/04/08 06:03:38;;;;;;;25.00;20.20;;;7.60;94.20;;;;;;5028960;28;21005;-66
2023/04/08 06:06:10;;;;;;;21.40;16.47;;;7.80;93.70;;;;;;5029267;28;20490;-66
2023/04/08 06:08:36;;;;;;;20.43;15.97;;;7.90;93.20;;;;;;5029202;28;20456;-66
2023/04/08 06:11:04;;;;;;;23.63;17.33;;;7.90;92.40;;;;;;5029341;28;20465;-65
2023/04/08 06:13:30;;;;;;;21.47;17.50;;;7.90;92.60;;;;;;5028627;28;20455;-66
2023/04/08 06:15:57;;;;;;;23.20;18.80;;;8.00;92.60;;;;;;5029317;28;20445;-66
2023/04/08 06:18:24;;;;;;;18.70;16.60;;;8.00;92.60;;;;;;5028891;28;20447;-66
2023/04/08 06:20:52;;;;;;;21.00;17.90;;;8.20;92.10;;;;;;5029141;28;20465;-66
2023/04/08 06:23:19;;;;;;;26.33;19.03;;;8.20;92.10;;;;;;5028935;28;20457;-66
2023/04/08 06:25:46;;;;;;;20.50;17.47;;;8.40;91.90;;;;;;5033032;28;20559;-66
2023/04/08 06:28:13;;;;;;;21.80;17.60;;;8.40;92.10;;;;;;5032639;28;20553;-66
2023/04/08 06:30:39;;;;;;;22.13;17.83;;;8.50;92.00;;;;;;5031859;28;20461;-66
2023/04/08 06:33:06;;;;;;;22.93;17.80;;;8.70;91.50;;;;;;5032331;28;20460;-66
2023/04/08 06:35:33;;;;;;;24.43;18.30;;;8.90;90.60;;;;;;5032543;28;20437;-66
2023/04/08 06:38:01;;;;;;;22.17;18.10;;;8.90;90.50;;;;;;5033123;28;20450;-66
2023/04/08 06:40:28;;;;;;;23.07;17.43;;;8.90;90.30;;;;;;5032980;28;20496;-66
2023/04/08 06:42:54;;;;;;;21.60;18.10;;;8.60;90.40;;;;;;5032455;28;20461;-66
2023/04/08 06:45:21;;;;;;;23.10;18.00;;;8.60;91.00;;;;;;5032549;28;20464;-66
2023/04/08 06:47:48;;;;;;;23.37;18.27;;;8.60;91.20;;;;;;5032143;28;20452;-66
2023/04/08 06:50:15;;;;;;;22.77;17.60;;;8.60;91.20;;;;;;5032398;28;20489;-66
2023/04/08 06:52:42;;;;;;;20.43;17.23;;;8.70;91.30;;;;;;5031932;28;20453;-66
2023/04/08 06:55:10;;;;;;;19.73;16.70;;;8.70;90.80;;;;;;5032167;28;20445;-66
2023/04/08 06:57:37;;;;;;;21.53;16.63;;;8.60;90.80;;;;;;5032311;28;20543;-68
2023/04/08 07:00:05;;;;;;;20.63;16.13;;;8.60;90.70;;;;;;5032451;28;20475;-66
2023/04/08 07:02:32;;;;;;;18.83;15.90;;;8.70;90.20;;;;;;5031883;28;20463;-66
2023/04/08 07:04:59;;;;;;;18.13;14.50;;;8.80;90.00;;;;;;5032195;28;20442;-66
2023/04/08 07:07:26;;;;;;;20.17;15.53;;;9.10;89.40;;;;;;5032174;28;21025;-66
2023/04/08 07:09:52;;;;;;;18.50;15.17;;;9.20;88.70;;;;;;5032000;28;20466;-65
2023/04/08 07:12:20;;;;;;;17.10;15.30;;;9.30;87.50;;;;;;5032300;28;20961;-66
2023/04/08 07:14:47;;;;;;;21.23;16.57;;;9.20;87.50;;;;;;5031670;28;20456;-68
2023/04/08 07:17:14;;;;;;;18.00;15.47;;;9.10;87.40;;;;;;5032738;28;20450;-68
2023/04/08 07:19:42;;;;;;;22.70;15.80;;;9.10;88.20;;;;;;5031983;28;20474;-67
2023/04/08 07:22:09;;;;;;;17.70;15.47;;;9.30;86.80;;;;;;5030661;28;20500;-67
2023/04/08 07:24:36;;;;;;;19.20;15.60;;;9.40;86.70;;;;;;5031488;28;20454;-68
2023/04/08 07:27:03;;;;;;;14.80;13.20;;;9.50;86.80;;;;;;5030052;28;21004;-65
2023/04/08 07:29:31;;;;;;;13.87;12.57;;;9.60;85.90;;;;;;5031718;28;20476;-68
2023/04/08 07:31:58;;;;;;;16.40;13.17;;;9.80;83.80;;;;;;5031594;28;20544;-67
2023/04/08 07:34:24;;;;;;;15.60;13.23;;;9.80;82.40;;;;;;5030433;28;20822;-68
2023/04/08 07:36:51;;;;;;;13.90;12.60;;;9.80;82.10;;;;;;5030235;28;20454;-66
2023/04/08 07:39:18;;;;;;;13.20;11.50;;;9.80;83.00;;;;;;5031505;28;20503;-68
2023/04/08 07:41:45;;;;;;;14.77;12.60;;;9.80;83.20;;;;;;5030397;28;20448;-67
2023/04/08 07:44:15;;;;;;;15.03;12.80;;;9.90;82.30;;;;;;5028617;28;20978;-67
2023/04/08 07:46:48;;;;;;;13.40;12.03;;;10.10;79.50;;;;;;5028042;28;20483;-65
2023/04/08 07:49:15;;;;;;;14.50;13.00;;;10.10;79.40;;;;;;5030721;28;20978;-68
2023/04/08 07:51:41;;;;;;;14.57;13.10;;;10.30;78.50;;;;;;5028560;28;20467;-66
2023/04/08 07:54:09;;;;;;;16.50;13.60;;;10.30;77.80;;;;;;5030370;28;20459;-66
2023/04/08 07:56:39;;;;;;;16.07;14.20;;;10.50;77.80;;;;;;5031075;28;20451;-66
2023/04/08 07:59:05;;;;;;;15.77;14.07;;;10.70;76.50;;;;;;5055432;23;20444;-68
2023/04/08 08:01:33;;;;;;;16.00;14.40;;;10.70;76.10;;;;;;5050817;28;20444;-66
2023/04/08 08:04:02;;;;;;;15.77;14.00;;;10.70;76.50;;;;;;5049637;28;20220;-65
2023/04/08 08:06:31;;;;;;;15.93;14.40;;;10.70;75.20;;;;;;5051713;28;20864;-66
2023/04/08 08:08:57;;;;;;;14.53;13.17;;;10.60;76.10;;;;;;5051549;28;20472;-66
2023/04/08 08:11:25;;;;;;;14.83;13.30;;;10.50;76.50;;;;;;5033610;28;20462;-66
2023/04/08 08:13:52;;;;;;;17.00;13.50;;;10.40;77.40;;;;;;5030756;28;20437;-67
2023/04/08 08:16:19;;;;;;;14.27;12.93;;;10.60;77.00;;;;;;5031128;28;20447;-67
2023/04/08 08:18:46;;;;;;;15.20;13.60;;;10.60;77.10;;;;;;5030971;28;20972;-67
2023/04/08 08:21:14;;;;;;;16.63;14.77;;;10.60;75.40;;;;;;5030840;28;20498;-67
2023/04/08 08:23:41;;;;;;;13.93;12.63;;;10.60;76.00;;;;;;5030351;28;20455;-67
2023/04/08 08:26:10;;;;;;;14.50;13.10;;;10.70;75.10;;;;;;5030668;28;21033;-67
2023/04/08 08:28:37;;;;;;;17.10;15.40;;;10.80;74.20;;;;;;5030775;28;20457;-67
2023/04/08 08:31:04;;;;;;;15.10;13.17;;;10.70;72.60;;;;;;5030576;28;20470;-67
2023/04/08 08:33:31;;;;;;;14.20;12.87;;;10.70;72.30;;;;;;5030329;28;20463;-67
2023/04/08 08:35:58;;;;;;;15.83;13.93;;;10.60;72.30;;;;;;5030450;28;20791;-67
2023/04/08 08:38:27;;;;;;;15.10;13.60;;;10.90;73.40;;;;;;5030533;28;20543;-67
2023/04/08 08:40:55;;;;;;;15.33;13.83;;;11.20;71.50;;;;;;5030499;28;20476;-66
2023/04/08 08:43:22;;;;;;;15.23;13.70;;;11.20;69.90;;;;;;5030318;28;20452;-67
2023/04/08 08:45:51;;;;;;;16.47;14.97;;;11.30;69.40;;;;;;5030860;28;20447;-67
2023/04/08 08:48:18;;;;;;;15.73;14.23;;;11.20;68.80;;;;;;5030504;28;20518;-67
2023/04/08 08:50:45;;;;;;;15.40;13.83;;;11.20;69.90;;;;;;5030625;28;20823;-67
2023/04/08 08:53:12;;;;;;;16.07;13.83;;;11.00;69.00;;;;;;5030361;28;20453;-67
2023/04/08 08:55:40;;;;;;;16.43;14.73;;;11.10;70.60;;;;;;5030883;28;20456;-67
2023/04/08 08:58:07;;;;;;;14.67;13.27;;;11.50;69.90;;;;;;5030675;28;20448;-67
2023/04/08 09:00:35;;;;;;;15.53;14.03;;;11.60;67.40;;;;;;5030562;28;20553;-66
2023/04/08 09:03:18;;;;;;;16.90;15.30;;;11.60;67.70;;;;;;5030027;28;20456;-67
2023/04/08 09:05:49;;;;;;;16.00;14.47;;;11.60;66.10;;;;;;5030486;28;20824;-67
2023/04/08 09:08:30;;;;;;;16.80;15.03;;;11.70;66.20;;;;;;5030656;28;20451;-67
2023/04/08 09:11:13;;;;;;;16.23;14.17;;;11.80;64.80;;;;;;5030594;28;20989;-67
2023/04/08 09:13:43;;;;;;;15.40;14.00;;;11.80;62.80;;;;;;5030072;28;21113;-67
2023/04/08 09:16:11;;;;;;;15.17;13.77;;;11.80;63.90;;;;;;5030870;28;20449;-66
2023/04/08 09:18:39;;;;;;;14.93;13.50;;;11.80;62.50;;;;;;5030563;28;20449;-67
2023/04/08 09:21:07;;;;;;;17.20;15.40;;;11.80;61.10;;;;;;5030360;28;20938;-67
2023/04/08 09:23:39;;;;;;;15.03;13.47;;;12.00;61.40;;;;;;5030408;28;20444;-67
2023/04/08 09:26:10;;;;;;;15.77;14.27;;;12.10;60.90;;;;;;5030329;28;20491;-67
2023/04/08 09:28:37;;;;;;;16.60;14.90;;;12.20;59.80;;;;;;5030038;28;20457;-67
2023/04/08 09:31:21;;;;;;;15.13;13.73;;;12.40;59.40;;;;;;5030390;28;20480;-67
2023/04/08 09:33:48;;;;;;;14.20;12.90;;;12.70;59.10;;;;;;5029564;28;20457;-67
2023/04/08 09:36:16;;;;;;;14.50;13.00;;;12.80;58.60;;;;;;5030002;28;20442;-67
2023/04/08 09:38:43;;;;;;;14.90;13.53;;;13.00;58.80;;;;;;5030044;28;20533;-67
2023/04/08 09:41:15;;;;;;;15.57;14.07;;;13.40;58.50;;;;;;5029758;28;21070;-67
2023/04/08 09:43:48;;;;;;;16.70;15.10;;;13.50;54.10;;;;;;5029733;28;20578;-66
2023/04/08 09:46:17;;;;;;;16.20;14.50;;;13.40;53.90;;;;;;5030222;28;20447;-67
2023/04/08 09:48:50;;;;;;;15.50;13.97;;;13.10;54.70;;;;;;5029935;28;20572;-66
2023/04/08 09:51:20;;;;;;;15.00;13.50;;;13.00;54.70;;;;;;5029796;28;20467;-67
2023/04/08 09:53:48;;;;;;;14.13;12.80;;;12.90;52.10;;;;;;5029724;28;20450;-66
2023/04/08 09:56:19;;;;;;;13.90;12.70;;;12.70;51.10;;;;;;5030166;28;20930;-67
2023/04/08 09:58:54;;;;;;;16.03;14.40;;;12.60;50.90;;;;;;5031321;28;20462;-67
2023/04/08 10:01:28;;;;;;;13.80;12.60;;;12.90;51.30;;;;;;5034383;28;20452;-67
2023/04/08 10:03:56;;;;;;;14.77;13.33;;;13.40;50.60;;;;;;5033194;28;21010;-67
2023/04/08 10:06:28;;;;;;;15.57;14.10;;;13.50;48.60;;;;;;5033798;28;20438;-67
2023/04/08 10:08:56;;;;;;;14.70;13.30;;;13.50;50.00;;;;;;5033938;28;20458;-66
2023/04/08 10:11:24;;;;;;;14.93;13.50;;;13.30;48.30;;;;;;5033844;28;20446;-67
2023/04/08 10:13:51;;;;;;;14.33;12.93;;;13.20;50.00;;;;;;5047730;28;20529;-67
2023/04/08 10:16:20;;;;;;;15.33;13.93;;;13.10;51.00;;;;;;5053556;28;20514;-66
2023/04/08 10:18:48;;;;;;;13.90;12.60;;;13.10;51.20;;;;;;5053199;28;20452;-67
2023/04/08 10:21:38;;;;;;;13.90;12.60;;;13.00;51.40;;;;;;5053746;28;20499;-66
2023/04/08 10:24:09;;;;;;;16.77;14.17;;;12.90;51.50;;;;;;5053077;28;20461;-66
2023/04/08 10:26:41;;;;;;;15.50;14.20;;;12.50;52.30;;;;;;5053279;28;20489;-66
2023/04/08 10:29:41;;;;;;;14.27;11.33;;;12.30;52.30;;;;;;5052867;28;20539;-66
2023/04/08 10:32:08;;;;;;;12.93;11.73;;;12.40;54.00;;;;;;5053234;28;20454;-66
2023/04/08 10:34:50;;;;;;;14.53;12.83;;;12.40;52.60;;;;;;5052867;28;20460;-66
2023/04/08 10:37:17;;;;;;;16.37;14.63;;;12.30;52.10;;;;;;5051512;28;20440;-65
2023/04/08 10:39:50;;;;;;;14.23;13.03;;;11.90;52.40;;;;;;5051250;28;20472;-67
2023/04/08 10:42:18;;;;;;;15.00;13.27;;;11.60;52.20;;;;;;5044435;28;20527;-70
2023/04/08 10:44:46;;;;;;;13.90;12.60;;;11.40;53.30;;;;;;5051463;28;20465;-67
2023/04/08 10:47:13;;;;;;;14.70;13.17;;;11.30;53.90;;;;;;5050992;28;20468;-68
2023/04/08 10:49:40;;;;;;;14.40;13.10;;;11.40;51.80;;;;;;5043178;28;20468;-68
2023/04/08 10:52:08;;;;;;;13.00;11.80;;;11.30;51.10;;;;;;5052623;28;20463;-68
2023/04/08 10:54:35;;;;;;;13.90;12.60;;;11.30;52.50;;;;;;5053143;28;20891;-68
2023/04/08 10:57:02;;;;;;;12.33;11.03;;;11.30;52.50;;;;;;5053197;28;20451;-67
2023/04/08 10:59:31;;;;;;;14.50;13.10;;;11.20;51.50;;;;;;5053975;28;20483;-66
2023/04/08 11:01:58;;;;;;;14.73;13.23;;;11.10;53.00;;;;;;5053435;28;20446;-67
2023/04/08 11:04:26;;;;;;;14.17;11.80;;;11.20;53.50;;;;;;5052456;28;20494;-68
2023/04/08 11:06:53;;;;;;;15.10;13.03;;;11.20;53.50;;;;;;5067452;28;20479;-67
2023/04/08 11:09:20;;;;;;;13.70;12.30;;;11.20;54.00;;;;;;5073697;28;20470;-67
2023/04/08 11:11:47;;;;;;;13.57;12.27;;;11.20;53.60;;;;;;5050247;28;20472;-67
2023/04/08 11:14:16;;;;;;;13.10;11.97;;;11.30;53.60;;;;;;5046438;28;20454;-68
2023/04/08 11:16:44;;;;;;;13.23;11.93;;;11.40;53.30;;;;;;5054104;28;20449;-68
2023/04/08 11:19:14;;;;;;;13.83;12.33;;;11.50;54.20;;;;;;5048839;28;20436;-68
2023/04/08 11:21:41;;;;;;;13.53;12.23;;;11.60;53.10;;;;;;5054219;28;20432;-67
2023/04/08 11:24:12;;;;;;;13.67;12.37;;;11.60;53.20;;;;;;5053197;28;20502;-68
2023/04/08 11:26:39;;;;;;;13.30;12.00;;;11.60;52.90;;;;;;5052631;28;20487;-67
2023/04/08 11:29:09;;;;;;;13.77;12.30;;;11.50;53.00;;;;;;5052538;28;20442;-67
2023/04/08 11:31:36;;;;;;;15.43;12.83;;;11.50;52.70;;;;;;5051074;28;20506;-66
2023/04/08 11:34:05;;;;;;;13.10;11.80;;;11.40;53.30;;;;;;5049630;28;20517;-66
2023/04/08 11:36:34;;;;;;;12.10;11.00;;;11.30;53.00;;;;;;5046074;28;20764;-67
2023/04/08 11:39:00;;;;;;;12.90;11.70;;;11.30;52.40;;;;;;5046841;28;20463;-65
2023/04/08 11:41:37;;;;;;;13.13;11.70;;;11.20;52.00;;;;;;5048304;28;20464;-67
2023/04/08 11:44:04;;;;;;;13.60;12.20;;;11.30;51.40;;;;;;5048079;28;20790;-67
2023/04/08 11:46:31;;;;;;;12.83;11.53;;;11.20;51.00;;;;;;5050901;28;20433;-67
2023/04/08 11:48:59;;;;;;;12.60;11.43;;;11.20;51.70;;;;;;5050677;28;20558;-67
2023/04/08 11:51:27;;;;;;;11.30;10.30;;;11.10;51.90;;;;;;5050114;28;20496;-68
2023/04/08 11:53:54;;;;;;;13.73;12.33;;;11.10;51.90;;;;;;5048740;28;20455;-68
2023/04/08 11:56:22;;;;;;;17.10;12.00;;;11.20;52.50;;;;;;5050533;28;20446;-68
2023/04/08 11:58:49;;;;;;;12.57;11.47;;;11.00;52.30;;;;;;5048577;28;20477;-68
2023/04/08 12:01:16;;;;;;;12.30;11.10;;;10.90;53.50;;;;;;5051535;28;20554;-68
2023/04/08 12:04:00;;;;;;;12.90;11.37;;;11.10;53.40;;;;;;5050450;28;20454;-68
2023/04/08 12:06:30;;;;;;;13.30;11.83;;;11.30;53.20;;;;;;5050240;28;20493;-67
2023/04/08 12:08:57;;;;;;;12.23;11.13;;;11.40;52.90;;;;;;5043372;28;20494;-68
2023/04/08 12:11:24;;;;;;;12.83;11.63;;;11.30;53.20;;;;;;5046896;28;20940;-68
2023/04/08 12:13:51;;;;;;;12.57;11.30;;;11.10;52.60;;;;;;5045454;28;20441;-68
2023/04/08 12:16:20;;;;;;;12.97;11.77;;;10.90;53.50;;;;;;5049444;28;20454;-68
2023/04/08 12:18:46;;;;;;;14.07;12.67;;;10.80;52.70;;;;;;5050397;28;20450;-68
2023/04/08 12:21:13;;;;;;;12.27;11.17;;;10.90;54.70;;;;;;5044514;28;20485;-68
2023/04/08 12:23:41;;;;;;;12.20;11.00;;;11.10;53.80;;;;;;5048108;28;20447;-68
2023/04/08 12:26:08;;;;;;;12.93;11.70;;;11.30;54.00;;;;;;5050178;28;20445;-68
2023/04/08 12:28:35;;;;;;;13.23;12.00;;;11.40;54.40;;;;;;5046480;28;20480;-68
2023/04/08 12:31:02;;;;;;;17.70;12.40;;;11.60;53.20;;;;;;5047038;28;20468;-68
2023/04/08 12:33:29;;;;;;;14.70;13.10;;;11.70;52.60;;;;;;5048713;28;20478;-68
2023/04/08 12:35:57;;;;;;;12.70;11.40;;;11.50;52.50;;;;;;5049832;28;20506;-67
2023/04/08 12:38:25;;;;;;;13.07;11.60;;;11.50;53.10;;;;;;5049971;28;20547;-68